createdAt,value
2016-09-11T00:00:59.306Z,19.79
2016-09-11T00:01:59.236Z,19.86
2016-09-11T00:02:59.239Z,19.79
2016-09-11T00:03:59.368Z,19.82
2016-09-11T00:04:59.240Z,19.84
2016-09-11T00:05:59.254Z,19.86
2016-09-11T00:06:59.262Z,19.82
2016-09-11T00:07:59.258Z,19.81
2016-09-11T00:08:59.583Z,19.82
2016-09-11T00:09:59.255Z,19.76
2016-09-11T00:10:59.416Z,19.84
2016-09-11T00:11:59.268Z,19.84
2016-09-11T00:12:59.317Z,19.95
2016-09-11T00:13:59.259Z,19.92
2016-09-11T00:14:59.268Z,19.79
2016-09-11T00:15:59.279Z,19.81
2016-09-11T00:16:59.595Z,19.89
2016-09-11T00:17:59.284Z,19.89
2016-09-11T00:18:59.638Z,19.84
2016-09-11T00:19:59.281Z,19.79
2016-09-11T00:20:59.303Z,19.76
2016-09-11T00:21:59.287Z,19.77
2016-09-11T00:22:59.295Z,19.84
2016-09-11T00:23:59.611Z,19.69
2016-09-11T00:24:59.290Z,19.82
2016-09-11T00:25:59.330Z,19.7
2016-09-11T00:26:59.338Z,19.74
2016-09-11T00:27:59.295Z,19.71
2016-09-11T00:28:59.307Z,19.64
2016-09-11T00:29:59.318Z,19.73
2016-09-11T00:30:59.483Z,19.67
2016-09-11T00:31:59.453Z,19.58
2016-09-11T00:32:59.643Z,19.54
2016-09-11T00:33:59.638Z,19.56
2016-09-11T00:34:59.327Z,19.54
2016-09-11T00:35:59.352Z,19.52
2016-09-11T00:36:59.329Z,19.51
2016-09-11T00:37:59.324Z,19.52
2016-09-11T00:38:59.333Z,19.49
2016-09-11T00:39:59.336Z,19.47
2016-09-11T00:40:59.341Z,19.39
2016-09-11T00:41:59.354Z,19.41
2016-09-11T00:42:59.972Z,19.3
2016-09-11T00:43:59.341Z,19.33
2016-09-11T00:44:59.343Z,19.4
2016-09-11T00:45:59.333Z,19.41
2016-09-11T00:46:59.337Z,19.36
2016-09-11T00:47:59.353Z,19.3
2016-09-11T00:48:59.355Z,19.31
2016-09-11T00:49:59.680Z,19.34
2016-09-11T00:50:59.352Z,19.3
2016-09-11T00:51:59.370Z,19.29
2016-09-11T00:52:59.360Z,19.27
2016-09-11T00:53:59.679Z,19.33
2016-09-11T00:54:59.619Z,19.27
2016-09-11T00:55:59.369Z,19.27
2016-09-11T00:56:59.356Z,19.27
2016-09-11T00:57:59.470Z,19.29
2016-09-11T00:58:59.690Z,19.29
2016-09-11T00:59:59.366Z,19.4
2016-09-11T01:00:59.360Z,19.3
2016-09-11T01:01:59.401Z,19.29
2016-09-11T01:02:59.694Z,19.27
2016-09-11T01:03:59.420Z,19.22
2016-09-11T01:04:59.376Z,19.22
2016-09-11T01:05:59.384Z,19.21
2016-09-11T01:06:59.711Z,19.18
2016-09-11T01:07:59.714Z,19.12
2016-09-11T01:08:59.560Z,19.16
2016-09-11T01:09:59.415Z,19.14
2016-09-11T01:10:59.391Z,19.14
2016-09-11T01:11:59.402Z,19.19
2016-09-11T01:12:59.713Z,19.14
2016-09-11T01:13:59.406Z,19.09
2016-09-11T01:14:59.407Z,19.15
2016-09-11T01:15:59.747Z,19.09
2016-09-11T01:16:59.424Z,19.12
2016-09-11T01:17:59.402Z,19.11
2016-09-11T01:18:59.410Z,19.04
2016-09-11T01:19:59.721Z,19.09
2016-09-11T01:20:59.421Z,19.14
2016-09-11T01:21:59.409Z,19.04
2016-09-11T01:22:59.414Z,19.04
2016-09-11T01:23:59.727Z,19.07
2016-09-11T01:24:59.430Z,19
2016-09-11T01:25:59.727Z,19.08
2016-09-11T01:26:59.453Z,19
2016-09-11T01:27:59.429Z,19
2016-09-11T01:28:59.422Z,19.11
2016-09-11T01:29:59.431Z,19.15
2016-09-11T01:30:59.590Z,19.12
2016-09-11T01:31:59.444Z,19
2016-09-11T01:32:59.439Z,19.09
2016-09-11T01:33:59.764Z,19.02
2016-09-11T01:34:59.434Z,19.09
2016-09-11T01:35:59.449Z,19.09
2016-09-11T01:36:59.778Z,19.09
2016-09-11T01:37:59.775Z,19.09
2016-09-11T01:38:59.777Z,19.09
2016-09-11T01:39:59.458Z,19.09
2016-09-11T01:40:59.463Z,19.11
2016-09-11T01:41:59.780Z,19.08
2016-09-11T01:42:59.463Z,19.09
2016-09-11T01:43:59.487Z,19.04
2016-09-11T01:44:59.709Z,19.04
2016-09-11T01:45:59.798Z,19
2016-09-11T01:46:59.784Z,19.02
2016-09-11T01:47:59.466Z,18.93
2016-09-11T01:48:59.472Z,18.92
2016-09-11T01:49:59.473Z,18.92
2016-09-11T01:50:59.545Z,19.07
2016-09-11T01:51:59.469Z,19.04
2016-09-11T01:52:59.513Z,19.09
2016-09-11T01:53:59.513Z,19.04
2016-09-11T01:54:59.498Z,19.09
2016-09-11T01:55:59.478Z,19.07
2016-09-11T01:56:59.483Z,19.04
2016-09-11T01:57:59.512Z,19.04
2016-09-11T01:59:00.119Z,19.09
2016-09-11T01:59:59.500Z,19.07
2016-09-11T02:00:59.753Z,19.04
2016-09-11T02:01:59.512Z,19.07
2016-09-11T02:02:59.496Z,19.04
2016-09-11T02:03:59.511Z,19.07
2016-09-11T02:04:59.530Z,18.99
2016-09-11T02:05:59.518Z,18.99
2016-09-11T02:06:59.510Z,18.93
2016-09-11T02:07:59.508Z,19.02
2016-09-11T02:08:59.506Z,18.96
2016-09-11T02:09:59.827Z,19
2016-09-11T02:10:59.527Z,18.92
2016-09-11T02:11:59.522Z,18.92
2016-09-11T02:12:59.514Z,19.04
2016-09-11T02:13:59.846Z,18.93
2016-09-11T02:14:59.519Z,18.93
2016-09-11T02:15:59.829Z,18.96
2016-09-11T02:16:59.517Z,18.95
2016-09-11T02:17:59.587Z,18.93
2016-09-11T02:18:59.534Z,19.04
2016-09-11T02:19:59.521Z,18.92
2016-09-11T02:20:59.520Z,19.04
2016-09-11T02:21:59.531Z,19.07
2016-09-11T02:22:59.525Z,19
2016-09-11T02:23:59.537Z,18.96
2016-09-11T02:24:59.534Z,18.99
2016-09-11T02:25:59.537Z,19.09
2016-09-11T02:26:59.538Z,19
2016-09-11T02:27:59.536Z,18.99
2016-09-11T02:28:59.624Z,19
2016-09-11T02:29:59.543Z,19
2016-09-11T02:30:59.579Z,19.04
2016-09-11T02:31:59.665Z,19.08
2016-09-11T02:32:59.545Z,19.02
2016-09-11T02:33:59.547Z,19.07
2016-09-11T02:34:59.560Z,19.07
2016-09-11T02:35:59.553Z,19.09
2016-09-11T02:36:59.555Z,19.07
2016-09-11T02:37:59.552Z,19.04
2016-09-11T02:38:59.917Z,19
2016-09-11T02:39:59.566Z,19.02
2016-09-11T02:40:59.559Z,18.99
2016-09-11T02:41:59.559Z,18.92
2016-09-11T02:42:59.889Z,18.95
2016-09-11T02:43:59.567Z,18.95
2016-09-11T02:44:59.897Z,18.95
2016-09-11T02:45:59.565Z,18.95
2016-09-11T02:46:59.587Z,18.86
2016-09-11T02:47:59.580Z,18.89
2016-09-11T02:48:59.588Z,18.92
2016-09-11T02:49:59.900Z,18.83
2016-09-11T02:50:59.760Z,18.84
2016-09-11T02:51:59.593Z,18.84
2016-09-11T02:52:59.600Z,18.86
2016-09-11T02:54:00.229Z,18.86
2016-09-11T02:54:59.590Z,18.89
2016-09-11T02:55:59.616Z,18.89
2016-09-11T02:56:59.597Z,18.83
2016-09-11T02:57:59.597Z,18.89
2016-09-11T02:58:59.597Z,18.86
2016-09-11T02:59:59.600Z,18.83
2016-09-11T03:00:59.637Z,18.84
2016-09-11T03:01:59.598Z,18.84
2016-09-11T03:02:59.613Z,18.88
2016-09-11T03:03:59.608Z,18.71
2016-09-11T03:04:59.609Z,18.77
2016-09-11T03:05:59.626Z,18.73
2016-09-11T03:06:59.646Z,18.7
2016-09-11T03:07:59.614Z,18.63
2016-09-11T03:08:59.685Z,18.7
2016-09-11T03:09:59.622Z,18.7
2016-09-11T03:10:59.654Z,18.66
2016-09-11T03:11:59.621Z,18.65
2016-09-11T03:12:59.635Z,18.6
2016-09-11T03:13:59.942Z,18.59
2016-09-11T03:14:59.623Z,18.68
2016-09-11T03:15:59.646Z,18.65
2016-09-11T03:16:59.627Z,18.71
2016-09-11T03:17:59.783Z,18.68
2016-09-11T03:18:59.629Z,18.68
2016-09-11T03:19:59.630Z,18.59
2016-09-11T03:20:59.635Z,18.59
2016-09-11T03:21:59.633Z,18.66
2016-09-11T03:22:59.662Z,18.73
2016-09-11T03:23:59.656Z,18.63
2016-09-11T03:24:59.660Z,18.62
2016-09-11T03:25:59.644Z,18.65
2016-09-11T03:26:59.645Z,18.59
2016-09-11T03:27:59.668Z,18.56
2016-09-11T03:28:59.673Z,18.52
2016-09-11T03:29:59.991Z,18.62
2016-09-11T03:30:59.979Z,18.68
2016-09-11T03:31:59.707Z,18.59
2016-09-11T03:32:59.661Z,18.56
2016-09-11T03:33:59.671Z,18.47
2016-09-11T03:34:59.658Z,18.47
2016-09-11T03:35:59.984Z,18.52
2016-09-11T03:36:59.674Z,18.44
2016-09-11T03:38:00.097Z,18.45
2016-09-11T03:38:59.686Z,18.45
2016-09-11T03:39:59.668Z,18.49
2016-09-11T03:40:59.665Z,18.49
2016-09-11T03:41:59.696Z,18.34
2016-09-11T03:42:59.686Z,18.37
2016-09-11T03:44:00.470Z,18.41
2016-09-11T03:44:59.685Z,18.4
2016-09-11T03:45:59.711Z,18.33
2016-09-11T03:46:59.739Z,18.45
2016-09-11T03:47:59.742Z,18.45
2016-09-11T03:48:59.698Z,18.47
2016-09-11T03:49:59.695Z,18.45
2016-09-11T03:50:59.717Z,18.41
2016-09-11T03:51:59.698Z,18.34
2016-09-11T03:52:59.712Z,18.41
2016-09-11T03:54:00.121Z,18.4
2016-09-11T03:54:59.693Z,18.43
2016-09-11T03:55:59.732Z,18.35
2016-09-11T03:56:59.704Z,18.31
2016-09-11T03:58:00.034Z,18.35
2016-09-11T03:58:59.695Z,18.35
2016-09-11T04:00:00.059Z,18.33
2016-09-11T04:00:59.703Z,18.41
2016-09-11T04:01:59.708Z,18.47
2016-09-11T04:03:00.035Z,18.33
2016-09-11T04:03:59.710Z,18.43
2016-09-11T04:04:59.739Z,18.49
2016-09-11T04:06:00.056Z,18.43
2016-09-11T04:06:59.755Z,18.47
2016-09-11T04:07:59.774Z,18.37
2016-09-11T04:08:59.740Z,18.41
2016-09-11T04:10:00.037Z,18.4
2016-09-11T04:10:59.963Z,18.34
2016-09-11T04:12:00.047Z,18.35
2016-09-11T04:12:59.720Z,18.31
2016-09-11T04:13:59.751Z,18.4
2016-09-11T04:14:59.727Z,18.29
2016-09-11T04:15:59.738Z,18.35
2016-09-11T04:16:59.745Z,18.33
2016-09-11T04:18:00.089Z,18.33
2016-09-11T04:18:59.759Z,18.35
2016-09-11T04:19:59.751Z,18.29
2016-09-11T04:20:59.743Z,18.26
2016-09-11T04:22:00.183Z,18.23
2016-09-11T04:22:59.744Z,18.26
2016-09-11T04:23:59.745Z,18.2
2016-09-11T04:25:13.011Z,18.2
2016-09-11T04:25:59.784Z,18.2
2016-09-11T04:26:59.993Z,18.18
2016-09-11T04:27:59.748Z,18.19
2016-09-11T04:28:59.746Z,18.18
2016-09-11T04:29:59.744Z,18.1
2016-09-11T04:30:59.752Z,18.19
2016-09-11T04:31:59.993Z,18.2
2016-09-11T04:32:59.751Z,18.16
2016-09-11T04:33:59.753Z,18.25
2016-09-11T04:34:59.764Z,18.22
2016-09-11T04:35:59.766Z,18.22
2016-09-11T04:36:59.765Z,18.22
2016-09-11T04:37:59.765Z,18.22
2016-09-11T04:38:59.769Z,18.18
2016-09-11T04:39:59.769Z,18.22
2016-09-11T04:40:59.766Z,18.25
2016-09-11T04:41:59.795Z,18.2
2016-09-11T04:42:59.774Z,18.2
2016-09-11T04:43:59.779Z,18.23
2016-09-11T04:44:59.776Z,18.2
2016-09-11T04:45:59.778Z,18.2
2016-09-11T04:46:59.778Z,18.2
2016-09-11T04:47:59.780Z,18.23
2016-09-11T04:48:59.847Z,18.05
2016-09-11T04:49:59.778Z,18.13
2016-09-11T04:50:59.778Z,18.13
2016-09-11T04:51:59.782Z,18.1
2016-09-11T04:52:59.787Z,18.13
2016-09-11T04:53:59.785Z,18.22
2016-09-11T04:54:59.793Z,18.18
2016-09-11T04:55:59.785Z,18.15
2016-09-11T04:56:59.789Z,18.16
2016-09-11T04:57:59.799Z,18.08
2016-09-11T04:58:59.801Z,18.18
2016-09-11T04:59:59.812Z,18.13
2016-09-11T05:00:59.801Z,18.16
2016-09-11T05:01:59.799Z,18.18
2016-09-11T05:02:59.801Z,18.22
2016-09-11T05:03:59.805Z,18.04
2016-09-11T05:04:59.809Z,18.08
2016-09-11T05:05:59.808Z,18.07
2016-09-11T05:06:59.811Z,18.04
2016-09-11T05:07:59.825Z,18.07
2016-09-11T05:08:59.815Z,18.04
2016-09-11T05:09:59.814Z,18.05
2016-09-11T05:10:59.810Z,17.9
2016-09-11T05:11:59.811Z,17.97
2016-09-11T05:12:59.810Z,18.03
2016-09-11T05:13:59.815Z,18.05
2016-09-11T05:14:59.828Z,18.04
2016-09-11T05:15:59.816Z,18.03
2016-09-11T05:16:59.817Z,18
2016-09-11T05:17:59.829Z,18.03
2016-09-11T05:18:59.821Z,18.11
2016-09-11T05:19:59.821Z,18
2016-09-11T05:20:59.833Z,18.01
2016-09-11T05:22:00.078Z,18.1
2016-09-11T05:22:59.831Z,18.05
2016-09-11T05:23:59.841Z,18.18
2016-09-11T05:24:59.834Z,18.11
2016-09-11T05:25:59.832Z,18.13
2016-09-11T05:26:59.834Z,18.08
2016-09-11T05:27:59.834Z,18.15
2016-09-11T05:28:59.836Z,18.2
2016-09-11T05:29:59.838Z,18.18
2016-09-11T05:30:59.840Z,18.18
2016-09-11T05:31:59.845Z,18.18
2016-09-11T05:32:59.839Z,18.23
2016-09-11T05:33:59.846Z,18.28
2016-09-11T05:34:59.842Z,18.35
2016-09-11T05:35:59.851Z,18.35
2016-09-11T05:36:59.849Z,18.31
2016-09-11T05:37:59.853Z,18.28
2016-09-11T05:38:59.852Z,18.31
2016-09-11T05:39:59.856Z,18.28
2016-09-11T05:40:59.861Z,18.44
2016-09-11T05:41:59.858Z,18.4
2016-09-11T05:42:59.861Z,18.49
2016-09-11T05:43:59.860Z,18.49
2016-09-11T05:44:59.858Z,18.45
2016-09-11T05:46:00.112Z,18.52
2016-09-11T05:46:59.861Z,18.4
2016-09-11T05:47:59.877Z,18.49
2016-09-11T05:48:59.869Z,18.58
2016-09-11T05:49:59.864Z,18.63
2016-09-11T05:50:59.875Z,18.6
2016-09-11T05:51:59.878Z,18.6
2016-09-11T05:52:59.903Z,18.59
2016-09-11T05:53:59.873Z,18.7
2016-09-11T05:55:00.125Z,18.7
2016-09-11T05:55:59.877Z,18.71
2016-09-11T05:56:59.903Z,18.7
2016-09-11T05:57:59.892Z,18.74
2016-09-11T05:58:59.908Z,18.84
2016-09-11T05:59:59.903Z,18.86
2016-09-11T06:00:59.910Z,18.83
2016-09-11T06:01:59.907Z,18.84
2016-09-11T06:02:59.894Z,18.83
2016-09-11T06:03:59.921Z,18.98
2016-09-11T06:04:59.932Z,18.92
2016-09-11T06:05:59.930Z,19
2016-09-11T06:06:59.910Z,18.95
2016-09-11T06:07:59.909Z,19.07
2016-09-11T06:08:59.914Z,19.11
2016-09-11T06:09:59.915Z,19.16
2016-09-11T06:10:59.910Z,19.14
2016-09-11T06:11:59.928Z,19.12
2016-09-11T06:13:01.064Z,19.22
2016-09-11T06:13:59.915Z,19.27
2016-09-11T06:14:59.927Z,19.26
2016-09-11T06:15:59.949Z,19.37
2016-09-11T06:16:59.947Z,19.36
2016-09-11T06:17:59.971Z,19.31
2016-09-11T06:18:59.944Z,19.45
2016-09-11T06:19:59.977Z,19.41
2016-09-11T06:20:59.952Z,19.47
2016-09-11T06:22:00.273Z,19.49
2016-09-11T06:23:00.576Z,19.49
2016-09-11T06:23:59.952Z,19.55
2016-09-11T06:24:59.949Z,19.63
2016-09-11T06:26:00.049Z,19.64
2016-09-11T06:26:59.949Z,19.64
2016-09-11T06:28:00.499Z,19.79
2016-09-11T06:28:59.954Z,19.79
2016-09-11T06:29:59.950Z,19.81
2016-09-11T06:30:59.978Z,19.92
2016-09-11T06:31:59.980Z,20.07
2016-09-11T06:33:00.289Z,20.03
2016-09-11T06:33:59.982Z,20.13
2016-09-11T06:34:59.986Z,20.19
2016-09-11T06:36:00.306Z,20.24
2016-09-11T06:36:59.986Z,20.31
2016-09-11T06:38:00.310Z,20.37
2016-09-11T06:38:59.985Z,20.4
2016-09-11T06:39:59.984Z,20.4
2016-09-11T06:40:59.983Z,20.56
2016-09-11T06:41:59.982Z,20.88
2016-09-11T06:43:00.408Z,21.24
2016-09-11T06:43:59.998Z,21.64
2016-09-11T06:45:00.314Z,22.18
2016-09-11T06:46:00.291Z,22.55
2016-09-11T06:47:00.049Z,22.96
2016-09-11T06:48:00.344Z,23.24
2016-09-11T06:49:00.014Z,23.55
2016-09-11T06:50:00.035Z,23.87
2016-09-11T06:51:00.034Z,24.13
2016-09-11T06:52:00.190Z,24.3
2016-09-11T06:53:00.031Z,24.61
2016-09-11T06:54:00.063Z,24.8
2016-09-11T06:55:00.057Z,24.96
2016-09-11T06:56:00.040Z,24.98
2016-09-11T06:57:00.188Z,25.16
2016-09-11T06:58:00.062Z,25.17
2016-09-11T06:59:00.051Z,25.16
2016-09-11T07:00:00.073Z,25.22
2016-09-11T07:01:00.081Z,25.21
2016-09-11T07:02:00.122Z,24.95
2016-09-11T07:03:00.072Z,24.84
2016-09-11T07:04:00.439Z,24.68
2016-09-11T07:05:00.093Z,24.58
2016-09-11T07:06:00.086Z,24.45
2016-09-11T07:07:00.120Z,24.3
2016-09-11T07:08:00.193Z,24.33
2016-09-11T07:09:00.442Z,24.29
2016-09-11T07:10:00.098Z,24.24
2016-09-11T07:11:00.201Z,24.36
2016-09-11T07:12:00.158Z,24.45
2016-09-11T07:13:00.131Z,24.84
2016-09-11T07:14:00.498Z,25.11
2016-09-11T07:15:00.185Z,25.5
2016-09-11T07:16:00.149Z,25.83
2016-09-11T07:17:00.220Z,26.18
2016-09-11T07:18:00.355Z,26.45
2016-09-11T07:19:00.558Z,26.58
2016-09-11T07:20:00.214Z,26.89
2016-09-11T07:21:00.561Z,26.93
2016-09-11T07:22:00.595Z,26.96
2016-09-11T07:23:00.179Z,27.21
2016-09-11T07:24:00.214Z,27.27
2016-09-11T07:25:00.438Z,27.47
2016-09-11T07:26:00.198Z,27.65
2016-09-11T07:27:00.509Z,27.9
2016-09-11T07:28:00.198Z,28.07
2016-09-11T07:29:00.204Z,28.3
2016-09-11T07:30:00.652Z,28.57
2016-09-11T07:31:00.229Z,28.85
2016-09-11T07:32:00.220Z,29.01
2016-09-11T07:33:00.577Z,28.67
2016-09-11T07:34:00.369Z,28.72
2016-09-11T07:35:00.281Z,28.81
2016-09-11T07:36:00.314Z,28.54
2016-09-11T07:37:00.459Z,28.59
2016-09-11T07:38:00.726Z,28.6
2016-09-11T07:39:00.279Z,28.59
2016-09-11T07:40:00.280Z,28.6
2016-09-11T07:41:00.596Z,28.64
2016-09-11T07:42:00.717Z,28.54
2016-09-11T07:43:00.658Z,28.47
2016-09-11T07:44:00.491Z,28.48
2016-09-11T07:45:01.084Z,28.6
2016-09-11T07:46:00.652Z,28.29
2016-09-11T07:47:00.601Z,28.3
2016-09-11T07:48:00.669Z,28.41
2016-09-11T07:49:00.349Z,28.57
2016-09-11T07:50:00.350Z,28.76
2016-09-11T07:51:00.395Z,29.02
2016-09-11T07:52:00.356Z,29.22
2016-09-11T07:53:00.366Z,29.36
2016-09-11T07:54:00.411Z,29.41
2016-09-11T07:55:00.703Z,29.14
2016-09-11T07:56:00.507Z,29.07
2016-09-11T07:57:00.736Z,28.98
2016-09-11T07:58:00.448Z,28.81
2016-09-11T07:59:00.409Z,29.01
2016-09-11T08:00:00.486Z,29.02
2016-09-11T08:01:00.430Z,29.17
2016-09-11T08:02:00.538Z,29.56
2016-09-11T08:03:00.852Z,29.75
2016-09-11T08:04:00.605Z,29.86
2016-09-11T08:05:00.859Z,30
2016-09-11T08:06:00.598Z,30.27
2016-09-11T08:07:00.772Z,30.28
2016-09-11T08:08:01.094Z,30.4
2016-09-11T08:09:00.497Z,30.46
2016-09-11T08:10:00.596Z,30.66
2016-09-11T08:11:01.147Z,30.7
2016-09-11T08:12:00.495Z,30.91
2016-09-11T08:13:00.595Z,31.02
2016-09-11T08:14:01.047Z,31.18
2016-09-11T08:15:00.529Z,31.37
2016-09-11T08:16:00.566Z,31.22
2016-09-11T08:17:00.584Z,30.85
2016-09-11T08:18:00.564Z,30.57
2016-09-11T08:19:00.563Z,30.21
2016-09-11T08:20:00.652Z,29.82
2016-09-11T08:21:00.900Z,29.29
2016-09-11T08:22:00.596Z,28.75
2016-09-11T08:23:00.623Z,28.29
2016-09-11T08:24:00.593Z,27.86
2016-09-11T08:25:01.043Z,27.37
2016-09-11T08:26:01.377Z,27.14
2016-09-11T08:27:00.706Z,26.88
2016-09-11T08:28:00.630Z,26.66
2016-09-11T08:29:00.757Z,26.55
2016-09-11T08:30:00.894Z,26.45
2016-09-11T08:31:00.676Z,26.44
2016-09-11T08:32:00.650Z,26.36
2016-09-11T08:33:00.855Z,26.21
2016-09-11T08:34:01.016Z,26.06
2016-09-11T08:35:00.978Z,25.8
2016-09-11T08:36:00.724Z,25.65
2016-09-11T08:37:00.723Z,25.54
2016-09-11T08:38:00.686Z,25.48
2016-09-11T08:39:00.699Z,25.4
2016-09-11T08:40:00.739Z,25.38
2016-09-11T08:41:00.731Z,25.4
2016-09-11T08:42:00.775Z,25.51
2016-09-11T08:43:00.727Z,25.53
2016-09-11T08:44:00.768Z,25.51
2016-09-11T08:45:00.735Z,25.62
2016-09-11T08:46:01.050Z,25.72
2016-09-11T08:47:00.765Z,25.68
2016-09-11T08:48:00.748Z,25.65
2016-09-11T08:49:00.762Z,25.72
2016-09-11T08:50:00.753Z,25.66
2016-09-11T08:51:01.088Z,25.54
2016-09-11T08:52:00.878Z,25.59
2016-09-11T08:53:00.789Z,25.6
2016-09-11T08:54:00.810Z,25.59
2016-09-11T08:55:00.780Z,25.65
2016-09-11T08:56:00.791Z,25.59
2016-09-11T08:57:01.118Z,25.55
2016-09-11T08:58:01.164Z,25.72
2016-09-11T08:59:00.809Z,25.65
2016-09-11T09:00:00.848Z,25.59
2016-09-11T09:01:00.838Z,25.58
2016-09-11T09:02:00.823Z,25.41
2016-09-11T09:03:00.833Z,25.48
2016-09-11T09:04:01.195Z,25.48
2016-09-11T09:05:00.850Z,25.46
2016-09-11T09:06:00.852Z,25.38
2016-09-11T09:07:00.850Z,25.46
2016-09-11T09:08:01.519Z,25.54
2016-09-11T09:09:00.903Z,25.62
2016-09-11T09:10:00.856Z,25.68
2016-09-11T09:11:00.917Z,25.72
2016-09-11T09:12:01.196Z,25.83
2016-09-11T09:13:01.193Z,26
2016-09-11T09:14:00.869Z,25.91
2016-09-11T09:15:01.582Z,26.06
2016-09-11T09:16:01.089Z,26.16
2016-09-11T09:17:00.887Z,26.31
2016-09-11T09:18:01.121Z,26.48
2016-09-11T09:19:00.923Z,26.66
2016-09-11T09:20:00.900Z,26.77
2016-09-11T09:21:00.929Z,26.8
2016-09-11T09:22:00.932Z,26.83
2016-09-11T09:23:01.328Z,26.75
2016-09-11T09:24:01.561Z,26.66
2016-09-11T09:25:00.946Z,26.71
2016-09-11T09:26:01.885Z,26.58
2016-09-11T09:27:01.256Z,26.52
2016-09-11T09:28:01.276Z,26.44
2016-09-11T09:29:00.982Z,26.43
2016-09-11T09:30:00.980Z,26.26
2016-09-11T09:31:00.969Z,26.28
2016-09-11T09:32:01.285Z,26.31
2016-09-11T09:33:01.456Z,26.29
2016-09-11T09:34:00.976Z,26.34
2016-09-11T09:35:01.157Z,26.33
2016-09-11T09:36:00.980Z,26.29
2016-09-11T09:37:01.787Z,26.45
2016-09-11T09:38:01.036Z,26.41
2016-09-11T09:39:01.747Z,26.47
2016-09-11T09:40:01.008Z,26.56
2016-09-11T09:41:01.125Z,26.77
2016-09-11T09:42:01.035Z,26.7
2016-09-11T09:43:01.038Z,26.7
2016-09-11T09:44:01.048Z,26.63
2016-09-11T09:45:01.040Z,26.56
2016-09-11T09:46:01.285Z,26.53
2016-09-11T09:47:01.057Z,26.45
2016-09-11T09:48:01.323Z,26.43
2016-09-11T09:49:01.124Z,26.4
2016-09-11T09:50:01.069Z,26.45
2016-09-11T09:51:01.430Z,26.52
2016-09-11T09:52:01.076Z,26.55
2016-09-11T09:53:01.072Z,26.59
2016-09-11T09:54:01.145Z,26.65
2016-09-11T09:55:01.400Z,26.77
2016-09-11T09:56:01.292Z,26.85
2016-09-11T09:57:01.524Z,26.85
2016-09-11T09:58:01.100Z,26.95
2016-09-11T09:59:01.109Z,26.83
2016-09-11T10:00:01.106Z,26.68
2016-09-11T10:01:01.112Z,26.71
2016-09-11T10:02:01.424Z,26.62
2016-09-11T10:03:01.585Z,26.74
2016-09-11T10:04:01.464Z,26.7
2016-09-11T10:05:01.135Z,26.7
2016-09-11T10:06:01.144Z,26.65
2016-09-11T10:07:01.184Z,26.7
2016-09-11T10:08:01.159Z,26.74
2016-09-11T10:09:01.158Z,26.84
2016-09-11T10:10:01.254Z,26.85
2016-09-11T10:11:01.172Z,27.02
2016-09-11T10:12:01.163Z,27.02
2016-09-11T10:13:01.171Z,27.03
2016-09-11T10:14:01.386Z,27.1
2016-09-11T10:15:02.330Z,27.1
2016-09-11T10:16:01.538Z,27.21
2016-09-11T10:17:01.289Z,27.22
2016-09-11T10:18:01.558Z,27.17
2016-09-11T10:19:01.267Z,27.07
2016-09-11T10:20:01.627Z,26.99
2016-09-11T10:21:01.219Z,26.97
2016-09-11T10:22:01.264Z,26.85
2016-09-11T10:23:01.243Z,27
2016-09-11T10:24:01.473Z,26.93
2016-09-11T10:25:02.398Z,26.92
2016-09-11T10:26:01.246Z,27.05
2016-09-11T10:27:01.262Z,27
2016-09-11T10:28:01.268Z,27.03
2016-09-11T10:29:01.258Z,27.08
2016-09-11T10:30:01.903Z,27.17
2016-09-11T10:31:01.607Z,27.3
2016-09-11T10:32:01.672Z,27.33
2016-09-11T10:33:01.283Z,27.35
2016-09-11T10:34:01.334Z,27.27
2016-09-11T10:35:01.305Z,27.17
2016-09-11T10:36:01.298Z,27.26
2016-09-11T10:37:01.305Z,27.22
2016-09-11T10:38:01.775Z,27.25
2016-09-11T10:39:01.426Z,27.25
2016-09-11T10:40:02.021Z,27.25
2016-09-11T10:41:01.353Z,27.18
2016-09-11T10:42:01.329Z,27.12
2016-09-11T10:43:01.341Z,27.05
2016-09-11T10:44:01.682Z,27.05
2016-09-11T10:45:01.548Z,27.12
2016-09-11T10:46:01.361Z,27.03
2016-09-11T10:47:01.685Z,27.07
2016-09-11T10:48:01.914Z,27.17
2016-09-11T10:49:01.696Z,27.15
2016-09-11T10:50:01.358Z,27.15
2016-09-11T10:51:01.706Z,27.25
2016-09-11T10:52:01.478Z,27.29
2016-09-11T10:53:01.436Z,27.29
2016-09-11T10:54:01.482Z,27.35
2016-09-11T10:55:01.780Z,27.39
2016-09-11T10:56:01.714Z,27.44
2016-09-11T10:57:01.404Z,27.55
2016-09-11T10:58:01.776Z,27.45
2016-09-11T10:59:01.784Z,27.48
2016-09-11T11:00:01.911Z,27.59
2016-09-11T11:01:01.429Z,27.58
2016-09-11T11:02:01.438Z,27.73
2016-09-11T11:03:01.462Z,27.74
2016-09-11T11:04:01.657Z,27.75
2016-09-11T11:05:01.465Z,27.71
2016-09-11T11:06:01.695Z,27.77
2016-09-11T11:07:01.462Z,27.78
2016-09-11T11:08:01.501Z,27.77
2016-09-11T11:09:01.533Z,27.75
2016-09-11T11:10:01.466Z,27.67
2016-09-11T11:11:01.495Z,27.7
2016-09-11T11:12:01.862Z,27.7
2016-09-11T11:13:01.477Z,27.64
2016-09-11T11:14:01.512Z,27.6
2016-09-11T11:15:02.883Z,27.54
2016-09-11T11:16:01.644Z,27.47
2016-09-11T11:17:01.504Z,27.49
2016-09-11T11:18:02.099Z,27.64
2016-09-11T11:19:01.592Z,27.75
2016-09-11T11:20:01.621Z,27.77
2016-09-11T11:21:01.562Z,27.83
2016-09-11T11:22:01.757Z,27.85
2016-09-11T11:23:01.556Z,27.93
2016-09-11T11:24:02.124Z,27.87
2016-09-11T11:25:05.839Z,27.83
2016-09-11T11:26:01.710Z,27.8
2016-09-11T11:27:01.562Z,27.96
2016-09-11T11:28:01.626Z,28.05
2016-09-11T11:29:01.593Z,28.1
2016-09-11T11:30:01.631Z,28.17
2016-09-11T11:31:01.699Z,28.11
2016-09-11T11:32:02.176Z,28.15
2016-09-11T11:33:01.658Z,28.2
2016-09-11T11:34:01.923Z,28.12
2016-09-11T11:35:02.654Z,28.1
2016-09-11T11:36:01.609Z,28.1
2016-09-11T11:37:01.654Z,28.14
2016-09-11T11:38:01.692Z,28.22
2016-09-11T11:39:01.752Z,28.12
2016-09-11T11:40:02.804Z,28.19
2016-09-11T11:41:01.946Z,28.2
2016-09-11T11:42:01.835Z,28.17
2016-09-11T11:43:01.826Z,28.12
2016-09-11T11:44:01.700Z,28.15
2016-09-11T11:45:03.119Z,28.23
2016-09-11T11:46:01.731Z,28.2
2016-09-11T11:47:02.138Z,28.04
2016-09-11T11:48:01.693Z,28.08
2016-09-11T11:49:01.971Z,28.11
2016-09-11T11:50:02.169Z,28.08
2016-09-11T11:51:01.747Z,28.17
2016-09-11T11:52:01.967Z,28.25
2016-09-11T11:53:02.025Z,28.3
2016-09-11T11:54:01.716Z,28.3
2016-09-11T11:55:01.718Z,28.29
2016-09-11T11:56:01.780Z,28.29
2016-09-11T11:57:01.732Z,28.26
2016-09-11T11:58:01.741Z,28.3
2016-09-11T11:59:02.113Z,28.26
2016-09-11T12:00:03.125Z,28.17
2016-09-11T12:01:02.069Z,28.19
2016-09-11T12:02:01.775Z,28.19
2016-09-11T12:03:01.916Z,28.23
2016-09-11T12:04:01.781Z,28.23
2016-09-11T12:05:02.057Z,28.26
2016-09-11T12:06:01.898Z,28.35
2016-09-11T12:07:02.402Z,28.39
2016-09-11T12:08:02.137Z,28.29
2016-09-11T12:09:01.873Z,28.35
2016-09-11T12:10:02.369Z,28.41
2016-09-11T12:11:01.830Z,28.44
2016-09-11T12:12:01.836Z,28.41
2016-09-11T12:13:01.834Z,28.41
2016-09-11T12:14:01.858Z,28.42
2016-09-11T12:15:01.841Z,28.47
2016-09-11T12:16:01.890Z,28.45
2016-09-11T12:17:02.249Z,28.44
2016-09-11T12:18:01.881Z,28.48
2016-09-11T12:19:01.897Z,28.57
2016-09-11T12:20:02.593Z,28.59
2016-09-11T12:21:02.218Z,28.63
2016-09-11T12:22:02.235Z,28.59
2016-09-11T12:23:01.959Z,28.56
2016-09-11T12:24:02.829Z,28.59
2016-09-11T12:25:02.426Z,28.56
2016-09-11T12:26:01.898Z,28.7
2016-09-11T12:27:01.880Z,28.74
2016-09-11T12:28:01.930Z,28.84
2016-09-11T12:29:01.932Z,28.97
2016-09-11T12:30:02.623Z,28.96
2016-09-11T12:31:02.054Z,28.89
2016-09-11T12:32:02.234Z,28.7
2016-09-11T12:33:02.225Z,28.59
2016-09-11T12:34:02.062Z,28.56
2016-09-11T12:35:02.446Z,28.42
2016-09-11T12:36:01.943Z,28.45
2016-09-11T12:37:01.979Z,28.44
2016-09-11T12:38:02.324Z,28.44
2016-09-11T12:39:01.999Z,28.62
2016-09-11T12:40:02.274Z,28.54
2016-09-11T12:41:01.984Z,28.6
2016-09-11T12:42:02.089Z,28.57
2016-09-11T12:43:01.983Z,28.75
2016-09-11T12:44:02.246Z,28.84
2016-09-11T12:45:02.355Z,28.89
2016-09-11T12:46:01.987Z,29.02
2016-09-11T12:47:02.924Z,29.05
2016-09-11T12:48:02.024Z,28.98
2016-09-11T12:49:02.065Z,28.98
2016-09-11T12:50:02.859Z,29.02
2016-09-11T12:51:02.063Z,29.1
2016-09-11T12:52:02.375Z,29.04
2016-09-11T12:53:02.039Z,29.07
2016-09-11T12:54:02.367Z,29.02
2016-09-11T12:55:02.577Z,28.97
2016-09-11T12:56:02.047Z,29.05
2016-09-11T12:57:02.051Z,29.04
2016-09-11T12:58:02.057Z,29.01